Time;durP1;ratioP1;P1;durP2;ratioP2;P2;SDS_P1;SDS_P2;PMS_P1;PMS_P2;Temp;Humidity;BMP_temperature;BMP_pressure;BME280_temperature;BME280_humidity;BME280_pressure;Samples;Min_cycle;Max_cycle;Signal;HPM_P1;HPM_P2
2023/10/05 00:01:30;;;;;;;10.73;6.90;;;;;;;10.28;83.29;99134.59;5070489;28;20024;-73
2023/10/05 00:03:55;;;;;;;12.55;7.32;;;;;;;10.18;83.40;99123.47;5071498;28;20094;-72
2023/10/05 00:06:24;;;;;;;15.52;8.20;;;;;;;10.04;83.34;99094.97;5053486;28;20033;-71
2023/10/05 00:08:52;;;;;;;11.02;6.97;;;;;;;10.23;83.42;99116.41;5052569;28;20037;-70
2023/10/05 00:11:23;;;;;;;9.73;6.72;;;;;;;10.30;82.95;99119.03;5050800;28;20589;-72
2023/10/05 00:14:12;;;;;;;9.80;6.82;;;;;;;10.34;83.05;99112.16;5050760;28;20460;-70
2023/10/05 00:16:38;;;;;;;12.82;7.25;;;;;;;10.38;83.19;99113.38;5038148;28;20553;-70
2023/10/05 00:19:10;;;;;;;11.38;7.82;;;;;;;10.39;83.50;99115.03;5070254;28;20024;-70
2023/10/05 00:21:36;;;;;;;14.90;8.18;;;;;;;10.29;83.69;99115.50;5050758;28;20520;-70
2023/10/05 00:24:06;;;;;;;16.38;8.57;;;;;;;10.25;83.31;99114.31;5070206;28;20032;-70
2023/10/05 00:26:33;;;;;;;9.57;8.27;;;;;;;10.12;83.19;99110.91;5051039;28;20481;-71
2023/10/05 00:31:44;;;;;;;12.52;7.35;;;;;;;10.15;83.36;99123.94;5035998;28;20496;-70
2023/10/05 00:34:18;;;;;;;11.27;6.82;;;;;;;10.19;83.34;99135.91;5061976;28;20039;-70
2023/10/05 00:36:49;;;;;;;16.02;9.25;;;;;;;10.16;83.29;99131.78;5049651;28;20033;-71
2023/10/05 00:39:16;;;;;;;12.23;8.38;;;;;;;10.18;83.35;99134.25;5059011;28;20048;-70
2023/10/05 00:41:41;;;;;;;17.30;8.30;;;;;;;10.10;83.52;99123.72;5052287;28;20075;-70
2023/10/05 00:44:07;;;;;;;13.48;8.82;;;;;;;10.16;83.51;99139.03;5053475;28;20452;-70
2023/10/05 00:46:35;;;;;;;10.20;7.30;;;;;;;10.12;83.55;99140.50;5036717;28;20024;-71
2023/10/05 00:49:05;;;;;;;13.95;8.68;;;;;;;10.12;83.61;99145.91;5049807;28;20037;-70
2023/10/05 00:51:36;;;;;;;15.32;8.93;;;;;;;10.08;83.63;99139.28;5049845;28;20060;-70
2023/10/05 00:54:10;;;;;;;14.32;8.77;;;;;;;10.10;83.43;99138.03;5047556;28;20032;-70
2023/10/05 00:56:38;;;;;;;9.10;7.47;;;;;;;10.11;83.70;99155.84;5051161;28;20033;-70
2023/10/05 00:59:09;;;;;;;14.07;7.55;;;;;;;10.11;83.36;99154.97;5035991;28;20487;-70
2023/10/05 01:04:53;;;;;;;10.27;7.90;;;;;;;10.11;83.05;99144.19;5013063;28;20441;-70
2023/10/05 01:07:28;;;;;;;16.13;8.48;;;;;;;10.11;83.04;99128.91;5035342;28;20040;-70
2023/10/05 01:14:52;;;;;;;13.30;8.48;;;;;;;10.00;83.00;99118.00;5058525;28;20121;-72
2023/10/05 01:17:20;;;;;;;15.77;9.95;;;;;;;9.91;83.20;99101.31;5058637;28;20033;-71
2023/10/05 01:19:59;;;;;;;16.40;9.73;;;;;;;9.86;83.85;99093.06;5059180;28;20472;-71
2023/10/05 01:22:39;;;;;;;14.43;9.07;;;;;;;9.89;83.96;99102.56;5043296;28;20051;-71
2023/10/05 01:25:06;;;;;;;15.77;10.23;;;;;;;9.84;83.96;99099.69;5060335;28;20028;-71
2023/10/05 01:27:32;;;;;;;14.25;10.60;;;;;;;9.71;83.63;99087.97;5058589;28;20059;-70
2023/10/05 01:29:59;;;;;;;16.70;10.35;;;;;;;9.59;83.54;99092.41;5058534;28;20032;-69
2023/10/05 01:32:26;;;;;;;17.15;10.32;;;;;;;9.66;84.01;99098.56;5058411;28;20051;-73
2023/10/05 01:34:52;;;;;;;13.73;9.95;;;;;;;9.63;84.16;99108.94;5042800;28;20054;-72
2023/10/05 01:37:22;;;;;;;13.50;9.90;;;;;;;9.60;84.14;99107.50;5060883;28;20024;-71
2023/10/05 01:39:47;;;;;;;16.33;11.32;;;;;;;9.54;84.16;99094.94;5044376;28;20050;-71
2023/10/05 01:42:14;;;;;;;19.15;10.90;;;;;;;9.47;84.49;99078.00;5060735;28;20029;-71
2023/10/05 01:44:47;;;;;;;12.77;9.93;;;;;;;9.54;84.57;99078.78;5061258;28;20036;-71
2023/10/05 01:47:16;;;;;;;13.65;11.10;;;;;;;9.56;84.50;99082.09;5060283;28;20078;-73
2023/10/05 01:49:46;;;;;;;19.08;12.15;;;;;;;9.51;84.34;99062.25;5050831;28;20039;-72
2023/10/05 01:52:12;;;;;;;13.43;10.93;;;;;;;9.54;85.36;99062.66;5052060;28;20393;-73
2023/10/05 01:54:37;;;;;;;15.25;11.30;;;;;;;9.60;85.66;99071.72;5037681;28;20032;-73
2023/10/05 01:57:07;;;;;;;14.05;10.38;;;;;;;9.59;85.03;99070.88;5030440;28;20037;-73
2023/10/05 01:59:33;;;;;;;17.05;10.73;;;;;;;9.67;84.87;99078.69;5074180;28;20040;-73
2023/10/05 02:02:04;;;;;;;14.77;9.82;;;;;;;9.70;85.11;99077.44;5042433;28;20119;-73
2023/10/05 02:04:31;;;;;;;15.35;10.50;;;;;;;9.70;85.74;99078.28;5058561;28;20036;-73
2023/10/05 02:06:56;;;;;;;13.40;9.45;;;;;;;9.77;85.83;99078.22;5041042;28;20115;-71
2023/10/05 02:09:21;;;;;;;15.13;10.63;;;;;;;9.81;85.57;99083.97;5073873;28;20068;-71
2023/10/05 02:11:47;;;;;;;18.10;10.45;;;;;;;9.80;86.18;99082.34;5057385;28;20016;-71
2023/10/05 02:14:16;;;;;;;15.23;9.10;;;;;;;9.85;86.10;99086.00;5037147;28;20033;-70
2023/10/05 02:16:42;;;;;;;13.35;10.23;;;;;;;9.91;85.86;99079.78;5050122;28;20153;-70
2023/10/05 02:19:08;;;;;;;12.02;9.90;;;;;;;9.74;85.68;99052.59;5057115;28;20062;-70
2023/10/05 02:21:36;;;;;;;17.25;11.00;;;;;;;9.72;85.94;99060.06;5053846;28;20036;-70
2023/10/05 02:26:53;;;;;;;;;;;;;;;9.47;85.86;99083.38;5050460;28;20041;-70
2023/10/05 02:29:18;;;;;;;16.10;10.50;;;;;;;9.66;85.71;99071.66;5042407;28;19919;-72
2023/10/05 02:37:19;;;;;;;15.90;12.02;;;;;;;9.86;85.35;99081.47;5056566;28;20062;-70
2023/10/05 02:39:46;;;;;;;15.07;9.90;;;;;;;9.89;85.13;99089.09;5040365;28;20507;-70
2023/10/05 02:42:16;;;;;;;15.32;11.25;;;;;;;9.88;85.07;99074.00;5056723;28;20060;-72
2023/10/05 02:44:45;;;;;;;13.05;9.75;;;;;;;9.85;85.35;99059.13;5040947;28;20028;-71
2023/10/05 02:47:22;;;;;;;14.73;10.75;;;;;;;9.71;85.02;99034.19;5055999;28;20123;-72
2023/10/05 02:49:47;;;;;;;14.07;10.40;;;;;;;9.80;85.13;99055.44;5037271;28;20032;-72
2023/10/05 02:52:15;;;;;;;19.42;12.32;;;;;;;9.89;85.33;99081.03;5045433;28;20032;-73
2023/10/05 02:54:41;;;;;;;20.60;12.63;;;;;;;9.80;85.13;99058.13;5039130;28;20104;-73
2023/10/05 02:57:11;;;;;;;18.95;11.93;;;;;;;9.88;85.06;99074.00;5039575;28;20048;-73
2023/10/05 02:59:36;;;;;;;18.95;11.85;;;;;;;9.79;85.13;99065.38;5039222;28;20548;-71
2023/10/05 03:02:07;;;;;;;20.83;13.43;;;;;;;9.83;85.18;99076.50;5055888;28;20112;-70
2023/10/05 03:04:54;;;;;;;15.70;11.15;;;;;;;9.82;84.89;99070.34;5040042;28;20123;-70
2023/10/05 03:07:25;;;;;;;17.85;10.85;;;;;;;9.80;85.44;99071.59;5055601;28;20511;-73
2023/10/05 03:09:52;;;;;;;15.80;11.25;;;;;;;9.82;84.88;99077.56;5056707;28;20082;-74
2023/10/05 03:12:21;;;;;;;21.80;12.98;;;;;;;9.77;85.88;99085.47;5039488;28;20103;-73
2023/10/05 03:14:54;;;;;;;18.45;10.52;;;;;;;9.74;85.48;99066.03;5035571;28;20032;-74
2023/10/05 03:17:22;;;;;;;15.23;9.43;;;;;;;9.88;85.19;99074.00;5068162;28;20033;-72
2023/10/05 03:19:51;;;;;;;14.63;9.60;;;;;;;9.82;85.28;99056.06;5032302;28;20028;-73
2023/10/05 03:22:17;;;;;;;15.05;9.60;;;;;;;9.94;85.01;99073.94;5023358;28;20035;-73
2023/10/05 03:24:44;;;;;;;14.18;9.85;;;;;;;9.86;84.81;99063.47;5057935;28;20092;-73
2023/10/05 03:27:11;;;;;;;13.55;9.80;;;;;;;9.84;85.02;99056.66;5056281;28;20068;-73
2023/10/05 03:29:42;;;;;;;16.67;9.73;;;;;;;9.87;84.92;99067.00;5039972;28;20029;-74
2023/10/05 03:34:34;;;;;;;13.07;9.13;;;;;;;9.77;84.41;99058.56;5055535;28;20504;-74
2023/10/05 03:37:08;;;;;;;14.27;10.88;;;;;;;9.74;84.29;99054.44;5055618;28;20037;-74
2023/10/05 03:39:38;;;;;;;18.20;11.70;;;;;;;9.72;84.41;99062.75;5039272;28;20062;-75
2023/10/05 03:42:07;;;;;;;16.13;11.98;;;;;;;9.84;84.39;99072.78;5036074;28;20033;-75
2023/10/05 03:44:33;;;;;;;19.17;11.80;;;;;;;9.79;85.01;99069.94;5035677;28;20028;-74
2023/10/05 03:47:00;;;;;;;15.45;11.45;;;;;;;9.79;84.72;99081.53;5051348;28;20055;-75
2023/10/05 03:49:25;;;;;;;17.77;11.20;;;;;;;9.68;84.74;99063.41;5035241;28;20052;-75
2023/10/05 03:51:51;;;;;;;18.80;12.57;;;;;;;9.70;85.18;99082.81;5038159;28;20083;-74
2023/10/05 03:54:26;;;;;;;12.98;10.02;;;;;;;9.80;85.16;99087.72;5038672;28;20118;-70
2023/10/05 03:57:10;;;;;;;11.15;9.30;;;;;;;9.72;84.86;99065.44;5038062;28;20399;-70
2023/10/05 03:59:37;;;;;;;13.82;9.88;;;;;;;9.84;84.76;99084.38;5054190;28;20025;-70
2023/10/05 04:02:04;;;;;;;14.43;10.02;;;;;;;9.89;84.74;99097.19;5037253;28;20149;-70
2023/10/05 04:04:35;;;;;;;11.80;9.38;;;;;;;9.91;84.40;99089.72;5071864;28;20036;-73
2023/10/05 04:07:03;;;;;;;14.95;10.50;;;;;;;9.92;84.48;99081.41;5070015;28;20036;-72
2023/10/05 04:09:29;;;;;;;26.88;20.77;;;;;;;9.88;84.74;99085.59;5033595;28;20024;-72
2023/10/05 04:11:55;;;;;;;30.33;25.20;;;;;;;9.75;84.93;99069.56;5048280;28;20287;-72
2023/10/05 04:14:22;;;;;;;21.13;17.65;;;;;;;9.69;84.82;99070.41;5050167;28;20060;-72
2023/10/05 04:16:48;;;;;;;18.38;14.05;;;;;;;9.74;84.39;99090.25;5035910;28;20399;-71
2023/10/05 04:19:14;;;;;;;17.73;12.65;;;;;;;9.65;84.70;99072.72;5053516;28;20036;-70
2023/10/05 04:21:40;;;;;;;20.00;13.68;;;;;;;9.66;84.51;99085.09;5053121;28;20078;-70
2023/10/05 04:24:06;;;;;;;18.35;12.02;;;;;;;9.62;84.78;99091.97;5069980;28;20051;-69
2023/10/05 04:26:37;;;;;;;16.35;12.65;;;;;;;9.53;84.85;99077.13;5050236;28;20485;-72
2023/10/05 04:29:09;;;;;;;17.13;11.43;;;;;;;9.58;85.17;99089.94;5071141;28;20040;-71
2023/10/05 04:31:36;;;;;;;18.25;13.23;;;;;;;9.56;84.74;99071.34;5040244;28;20045;-71
2023/10/05 04:34:05;;;;;;;15.10;11.52;;;;;;;9.69;84.86;99086.53;5057368;28;20519;-70
2023/10/05 04:36:31;;;;;;;16.65;12.07;;;;;;;9.67;85.00;99084.09;5056348;28;20047;-69
2023/10/05 04:38:56;;;;;;;16.13;12.80;;;;;;;9.57;85.67;99072.97;5057272;28;20032;-70
2023/10/05 04:41:28;;;;;;;16.70;11.43;;;;;;;9.65;85.64;99086.16;5056794;28;20040;-71
2023/10/05 04:43:54;;;;;;;17.67;12.15;;;;;;;9.47;85.58;99061.88;5057740;28;20040;-70
2023/10/05 04:46:20;;;;;;;16.95;11.35;;;;;;;9.48;86.02;99068.88;5056710;28;20077;-71
2023/10/05 04:48:55;;;;;;;14.65;10.88;;;;;;;9.62;85.30;99081.22;5055289;28;20112;-70
2023/10/05 04:51:30;;;;;;;16.42;10.88;;;;;;;9.65;85.56;99093.41;5060048;28;20029;-70
2023/10/05 04:53:59;;;;;;;12.82;10.85;;;;;;;9.58;85.82;99090.75;5053819;28;20029;-70
2023/10/05 05:07:07;;;;;;;15.73;10.60;;;;;;;9.64;85.94;99065.69;5053793;28;20481;-71
2023/10/05 05:09:37;;;;;;;15.95;10.45;;;;;;;9.56;85.71;99049.81;5053610;28;20087;-70
2023/10/05 05:12:03;;;;;;;15.43;11.05;;;;;;;9.66;86.50;99071.66;5035186;28;20584;-70
2023/10/05 05:14:32;;;;;;;19.15;11.98;;;;;;;9.61;86.62;99049.16;5066137;28;20036;-72
2023/10/05 05:17:05;;;;;;;15.90;10.30;;;;;;;9.65;86.00;99048.50;5068225;28;20136;-72
2023/10/05 05:19:31;;;;;;;16.40;11.10;;;;;;;9.74;86.57;99062.50;5056481;28;20070;-72
2023/10/05 05:21:59;;;;;;;17.73;11.60;;;;;;;9.69;86.77;99054.28;5074315;28;20158;-73
2023/10/05 05:24:28;;;;;;;15.60;11.63;;;;;;;9.72;86.63;99057.38;5036769;28;20057;-72
2023/10/05 05:27:21;;;;;;;16.38;10.63;;;;;;;9.75;86.51;99058.78;5070862;28;20380;-72
2023/10/05 05:29:47;;;;;;;16.30;11.60;;;;;;;9.63;86.46;99042.53;5053889;28;20516;-73
2023/10/05 05:32:13;;;;;;;16.75;11.07;;;;;;;9.78;86.44;99057.53;5052927;28;20385;-72
2023/10/05 05:34:42;;;;;;;15.55;11.25;;;;;;;9.80;86.89;99060.81;5050578;28;20058;-72
2023/10/05 05:37:11;;;;;;;15.73;11.23;;;;;;;9.70;86.59;99055.94;5055820;28;20071;-73
2023/10/05 05:39:39;;;;;;;15.73;10.90;;;;;;;9.71;86.44;99069.16;5039801;28;20029;-72
2023/10/05 05:42:12;;;;;;;18.98;10.93;;;;;;;9.83;86.44;99066.59;5055450;28;20020;-71
2023/10/05 05:44:38;;;;;;;14.52;11.23;;;;;;;9.71;86.31;99063.78;5056858;28;20040;-72
2023/10/05 05:47:09;;;;;;;14.00;10.85;;;;;;;9.73;86.15;99061.69;5055652;28;20035;-71
2023/10/05 05:49:38;;;;;;;15.38;10.45;;;;;;;9.88;86.34;99053.31;5040122;28;20024;-74
2023/10/05 05:52:08;;;;;;;17.52;10.48;;;;;;;9.90;85.91;99034.25;5039358;28;20430;-74
2023/10/05 05:54:35;;;;;;;13.90;10.10;;;;;;;9.94;85.99;99035.47;5052645;28;20560;-74
2023/10/05 05:57:01;;;;;;;18.83;10.38;;;;;;;10.00;85.70;99034.59;5027391;28;20086;-72
2023/10/05 05:59:26;;;;;;;14.13;10.45;;;;;;;10.03;86.03;99048.44;5072021;28;20483;-73
2023/10/05 06:01:52;;;;;;;17.23;10.50;;;;;;;10.01;85.94;99052.38;5055668;28;20533;-74
2023/10/05 06:04:17;;;;;;;12.27;10.18;;;;;;;10.08;86.25;99053.97;5052288;28;20028;-73
2023/10/05 06:06:48;;;;;;;14.63;10.52;;;;;;;9.80;85.67;99017.78;5043344;28;20097;-74
2023/10/05 06:09:19;;;;;;;15.25;10.80;;;;;;;9.98;86.13;99042.06;5038374;28;20040;-74
2023/10/05 06:11:45;;;;;;;12.02;9.90;;;;;;;10.16;86.34;99060.97;5039667;28;20051;-74
2023/10/05 06:14:10;;;;;;;16.13;10.38;;;;;;;10.23;85.83;99069.81;5072366;28;20063;-74
2023/10/05 06:16:36;;;;;;;15.77;10.60;;;;;;;10.27;85.70;99068.31;5036329;28;20068;-74
2023/10/05 06:19:01;;;;;;;14.15;9.40;;;;;;;10.30;85.79;99070.56;5051293;28;20033;-73
2023/10/05 06:21:27;;;;;;;15.65;10.38;;;;;;;10.29;85.83;99058.19;5047814;28;20063;-74
2023/10/05 06:23:52;;;;;;;13.73;10.48;;;;;;;10.33;85.55;99048.59;5055124;28;20024;-75
2023/10/05 06:26:17;;;;;;;13.38;9.85;;;;;;;10.43;85.77;99062.41;5071660;28;20041;-72
2023/10/05 06:28:44;;;;;;;17.38;9.95;;;;;;;10.50;85.53;99071.22;5050191;28;20031;-73
2023/10/05 06:31:12;;;;;;;16.13;9.27;;;;;;;10.46;85.55;99067.31;5055923;28;20041;-70
2023/10/05 06:33:41;;;;;;;18.00;10.02;;;;;;;10.37;85.77;99052.50;5056582;28;20479;-73
2023/10/05 06:36:07;;;;;;;17.63;11.25;;;;;;;10.50;85.87;99073.94;5037667;28;20025;-74
2023/10/05 06:38:32;;;;;;;18.27;10.98;;;;;;;10.56;85.29;99083.78;5073122;28;20369;-74
2023/10/05 06:40:58;;;;;;;21.60;13.15;;;;;;;10.42;85.17;99044.56;5056357;28;20056;-73
2023/10/05 06:43:26;;;;;;;21.27;12.98;;;;;;;10.52;85.23;99061.06;5057254;28;20111;-74
2023/10/05 06:45:51;;;;;;;24.92;13.63;;;;;;;10.64;85.56;99080.78;5037505;28;20098;-71
2023/10/05 06:48:17;;;;;;;18.67;11.52;;;;;;;10.58;85.45;99065.53;5053826;28;20020;-72
2023/10/05 06:50:43;;;;;;;15.30;10.15;;;;;;;10.72;85.27;99083.22;5059490;28;20103;-73
2023/10/05 06:53:10;;;;;;;13.65;9.40;;;;;;;10.78;85.00;99093.09;5024950;28;20051;-73
2023/10/05 06:55:36;;;;;;;16.15;10.00;;;;;;;10.73;84.97;99090.25;5037537;28;20032;-74
2023/10/05 06:58:03;;;;;;;15.50;9.57;;;;;;;10.88;84.73;99104.19;5072591;28;20504;-72
2023/10/05 07:00:29;;;;;;;15.50;9.50;;;;;;;10.92;84.38;99108.06;5072366;28;20542;-71
2023/10/05 07:02:58;;;;;;;12.45;9.88;;;;;;;10.93;84.36;99109.72;5043447;28;20028;-73
2023/10/05 07:05:24;;;;;;;18.20;10.30;;;;;;;11.03;84.58;99104.66;5045704;28;20040;-73
2023/10/05 07:07:49;;;;;;;12.13;9.85;;;;;;;11.11;84.34;99104.31;5054365;28;20032;-72
2023/10/05 07:10:15;;;;;;;13.45;8.77;;;;;;;11.02;84.11;99084.13;5051189;28;20040;-73
2023/10/05 07:12:42;;;;;;;11.40;8.27;;;;;;;11.32;83.98;99115.72;5054262;28;20488;-73
2023/10/05 07:15:08;;;;;;;14.02;8.55;;;;;;;11.47;83.55;99111.56;5053029;28;20550;-72
2023/10/05 07:17:34;;;;;;;13.15;8.82;;;;;;;11.49;83.50;99100.53;5033733;28;20489;-72
2023/10/05 07:19:59;;;;;;;15.20;8.60;;;;;;;11.49;83.57;99089.75;5068371;28;20036;-73
2023/10/05 07:22:25;;;;;;;11.60;9.02;;;;;;;11.60;83.11;99086.25;5050924;28;20021;-74
2023/10/05 07:24:50;;;;;;;13.15;8.75;;;;;;;11.82;82.85;99111.72;5034300;28;20473;-72
2023/10/05 07:27:16;;;;;;;14.90;9.10;;;;;;;11.83;82.43;99105.28;5036673;28;20016;-70
2023/10/05 07:29:45;;;;;;;17.67;8.93;;;;;;;11.85;82.96;99110.44;5063798;28;20041;-73
2023/10/05 07:32:12;;;;;;;13.90;8.85;;;;;;;11.81;82.09;99126.25;5053119;28;20542;-73
2023/10/05 07:34:39;;;;;;;14.90;8.63;;;;;;;11.74;82.32;99109.34;5066685;28;20036;-71
2023/10/05 07:37:05;;;;;;;12.52;8.60;;;;;;;11.77;82.14;99114.28;5020584;28;20503;-74
2023/10/05 07:39:31;;;;;;;15.07;8.82;;;;;;;11.83;82.02;99108.00;5036578;28;20040;-72
2023/10/05 07:41:59;;;;;;;12.63;8.30;;;;;;;11.80;82.23;99113.84;5068536;28;20649;-72
2023/10/05 07:44:24;;;;;;;11.25;8.35;;;;;;;11.91;82.39;99126.53;5053984;28;20090;-72
2023/10/05 07:46:49;;;;;;;13.77;8.45;;;;;;;12.06;82.16;99134.22;5053380;28;20024;-72
2023/10/05 07:49:15;;;;;;;14.38;8.50;;;;;;;12.01;81.88;99129.50;5064842;28;20032;-72
2023/10/05 07:51:41;;;;;;;13.45;8.43;;;;;;;12.04;82.04;99142.53;5059489;28;20025;-72
2023/10/05 07:54:07;;;;;;;12.43;8.68;;;;;;;12.07;82.20;99125.88;5070615;28;20028;-72
2023/10/05 07:56:32;;;;;;;14.43;8.65;;;;;;;12.08;81.60;99122.13;5033086;28;20039;-72
2023/10/05 07:58:58;;;;;;;11.80;8.10;;;;;;;12.22;81.54;99142.47;5048194;28;20044;-72
2023/10/05 08:01:25;;;;;;;13.07;8.68;;;;;;;12.18;81.24;99126.97;5071476;28;20531;-72
2023/10/05 08:03:51;;;;;;;13.48;8.88;;;;;;;12.24;81.29;99134.97;5071277;28;20047;-72
2023/10/05 08:06:17;;;;;;;12.00;8.57;;;;;;;12.23;81.57;99133.31;5036263;28;20028;-72
2023/10/05 08:08:42;;;;;;;15.43;8.15;;;;;;;12.34;81.98;99150.59;5051085;28;20044;-72
2023/10/05 08:11:07;;;;;;;12.43;7.95;;;;;;;12.40;81.43;99147.78;5071351;28;20065;-73
2023/10/05 08:13:33;;;;;;;13.27;7.45;;;;;;;12.46;80.91;99146.84;5071004;28;20043;-72
2023/10/05 08:15:58;;;;;;;12.18;7.40;;;;;;;12.45;81.27;99145.22;5070967;28;20047;-72
2023/10/05 08:18:25;;;;;;;11.52;7.68;;;;;;;12.41;80.94;99125.13;5071167;28;20036;-73
2023/10/05 08:20:51;;;;;;;11.88;7.30;;;;;;;12.48;81.10;99117.72;5037349;28;20025;-72
2023/10/05 08:23:16;;;;;;;13.05;7.72;;;;;;;12.62;80.96;99131.84;5053186;28;20039;-72
2023/10/05 08:25:42;;;;;;;10.93;6.55;;;;;;;12.69;80.28;99126.31;5036637;28;20042;-73
2023/10/05 08:28:09;;;;;;;13.82;7.43;;;;;;;12.80;80.51;99128.19;5072322;28;20044;-72
2023/10/05 08:30:45;;;;;;;16.58;7.75;;;;;;;12.91;79.99;99127.34;5069850;28;20500;-72
2023/10/05 08:33:15;;;;;;;14.35;7.40;;;;;;;12.99;80.26;99135.13;5050166;28;20078;-72
2023/10/05 08:35:40;;;;;;;15.35;7.25;;;;;;;13.06;80.25;99141.25;5052949;28;20032;-72
2023/10/05 08:38:10;;;;;;;13.65;7.22;;;;;;;13.15;80.23;99134.41;5069943;28;20055;-73
2023/10/05 08:43:16;;;;;;;11.38;6.68;;;;;;;13.28;78.88;99139.56;5052805;28;20025;-72
2023/10/05 08:45:46;;;;;;;12.35;6.55;;;;;;;13.29;78.63;99127.69;5051016;28;20400;-72
2023/10/05 08:48:15;;;;;;;13.02;6.85;;;;;;;13.60;78.64;99146.19;5068557;28;20041;-72
2023/10/05 08:50:42;;;;;;;11.55;6.60;;;;;;;13.63;77.79;99134.88;5047722;28;20139;-74
2023/10/05 08:53:12;;;;;;;10.55;6.13;;;;;;;13.82;77.86;99133.63;5018001;28;20063;-72
2023/10/05 08:55:39;;;;;;;12.38;6.38;;;;;;;14.05;77.58;99161.69;5051662;28;20120;-72
2023/10/05 08:58:05;;;;;;;11.50;6.70;;;;;;;14.05;77.79;99156.25;5050544;28;20036;-73
2023/10/05 09:00:40;;;;;;;12.45;7.05;;;;;;;14.09;77.21;99136.56;5032906;28;20041;-73
2023/10/05 09:03:29;;;;;;;20.05;7.30;;;;;;;13.97;76.56;99130.38;5034087;28;20566;-71
2023/10/05 09:06:13;;;;;;;13.80;7.55;;;;;;;14.11;76.53;99149.84;5068528;28;20120;-73
2023/10/05 09:08:53;;;;;;;14.88;6.97;;;;;;;14.10;76.25;99153.63;5049272;28;20040;-73
2023/10/05 09:11:32;;;;;;;11.07;6.78;;;;;;;14.09;76.34;99163.66;5060627;28;20507;-72
2023/10/05 09:14:38;;;;;;;15.43;7.50;;;;;;;14.14;76.07;99165.63;5029979;28;20408;-73
2023/10/05 09:17:05;;;;;;;13.63;6.68;;;;;;;14.25;75.28;99151.19;5053082;28;20049;-72
2023/10/05 09:19:33;;;;;;;12.93;6.57;;;;;;;14.33;74.99;99161.66;5056559;28;20044;-72
2023/10/05 09:24:25;;;;;;;15.32;6.90;;;;;;;14.52;75.47;99163.06;5040031;28;20081;-71
2023/10/05 09:26:55;;;;;;;13.88;6.28;;;;;;;14.67;74.49;99166.03;5073920;28;20029;-71
2023/10/05 09:29:32;;;;;;;22.38;8.05;;;;;;;14.78;74.55;99154.28;5053246;28;20037;-71
2023/10/05 09:31:59;;;;;;;13.38;6.68;;;;;;;14.81;74.58;99140.22;5072821;28;20039;-71
2023/10/05 09:34:33;;;;;;;12.98;5.95;;;;;;;14.95;74.03;99152.38;5056608;28;20032;-71
2023/10/05 09:37:02;;;;;;;14.00;7.07;;;;;;;15.14;73.85;99155.63;5055887;28;20119;-72
2023/10/05 09:39:27;;;;;;;11.82;6.22;;;;;;;15.31;73.52;99169.16;5036533;28;20726;-72
2023/10/05 09:41:56;;;;;;;12.88;6.40;;;;;;;15.07;73.06;99149.56;5052671;28;20171;-72
2023/10/05 09:44:28;;;;;;;14.07;6.40;;;;;;;15.26;72.56;99164.47;5053052;28;20020;-73
2023/10/05 09:46:54;;;;;;;15.55;6.10;;;;;;;15.24;72.35;99148.44;5056701;28;20439;-73
2023/10/05 09:49:21;;;;;;;13.43;6.75;;;;;;;15.24;72.30;99134.03;5067642;28;20401;-73
2023/10/05 09:51:48;;;;;;;12.55;6.15;;;;;;;15.46;72.56;99142.22;5044919;28;20032;-72
2023/10/05 09:54:14;;;;;;;13.43;6.05;;;;;;;15.66;71.94;99153.34;5054704;28;20028;-73
2023/10/05 09:56:41;;;;;;;15.38;6.32;;;;;;;15.75;71.30;99162.69;5055627;28;20032;-72
2023/10/05 09:59:15;;;;;;;14.32;5.97;;;;;;;15.81;70.92;99157.06;5056241;28;20161;-74
2023/10/05 10:01:42;;;;;;;14.55;5.85;;;;;;;15.68;70.91;99151.19;5040989;28;20036;-74
2023/10/05 10:04:09;;;;;;;13.15;5.60;;;;;;;15.73;70.65;99143.09;5056866;28;20357;-72
2023/10/05 10:06:35;;;;;;;11.55;6.47;;;;;;;15.45;70.35;99132.44;5056269;28;20052;-74
2023/10/05 10:09:10;;;;;;;14.18;6.38;;;;;;;15.69;70.13;99152.81;5055363;28;20477;-73
2023/10/05 10:11:36;;;;;;;14.83;6.20;;;;;;;15.96;70.72;99156.41;5037528;28;20037;-74
2023/10/05 10:14:14;;;;;;;13.30;6.07;;;;;;;16.28;69.34;99140.97;5037517;28;20396;-74
2023/10/05 10:16:42;;;;;;;13.05;5.50;;;;;;;16.30;69.02;99127.94;5038939;28;20635;-74
2023/10/05 10:19:22;;;;;;;11.05;5.28;;;;;;;16.39;69.12;99144.56;5052785;28;20049;-74
2023/10/05 10:21:53;;;;;;;14.15;5.90;;;;;;;16.42;69.09;99125.88;5068835;28;20024;-74
2023/10/05 10:24:19;;;;;;;15.80;5.72;;;;;;;16.36;68.78;99135.03;5052355;28;20485;-74
2023/10/05 10:27:07;;;;;;;14.55;5.68;;;;;;;16.45;68.22;99125.31;5050282;28;20167;-73
2023/10/05 10:29:45;;;;;;;19.90;5.80;;;;;;;16.35;68.54;99124.44;5052277;28;20589;-72
2023/10/05 10:32:20;;;;;;;12.38;5.18;;;;;;;16.43;68.46;99141.06;5042374;28;20036;-72
2023/10/05 10:34:52;;;;;;;10.83;5.90;;;;;;;16.48;69.28;99130.25;5056321;28;20377;-74
2023/10/05 10:37:36;;;;;;;11.95;5.68;;;;;;;16.52;68.28;99136.84;5051796;28;20481;-74
2023/10/05 10:45:32;;;;;;;13.63;5.70;;;;;;;16.68;68.26;99140.50;5071988;28;20090;-74
2023/10/05 10:47:58;;;;;;;15.52;5.35;;;;;;;16.91;68.00;99125.69;5054832;28;20025;-74
2023/10/05 10:50:29;;;;;;;12.73;4.90;;;;;;;16.77;66.88;99087.25;5073158;28;20510;-74
2023/10/05 10:52:55;;;;;;;10.65;4.80;;;;;;;17.02;66.10;99109.16;5039426;28;20043;-74
2023/10/05 10:55:21;;;;;;;10.07;4.00;;;;;;;16.92;64.68;99114.53;5055232;28;20111;-75
2023/10/05 10:57:47;;;;;;;7.80;3.17;;;;;;;17.03;62.87;99107.28;5051331;28;20040;-73
2023/10/05 11:02:58;;;;;;;9.43;3.20;;;;;;;17.26;61.70;99131.34;5039250;28;20120;-74
2023/10/05 11:05:39;;;;;;;13.15;3.70;;;;;;;17.18;61.37;99123.69;5066560;28;20158;-74
2023/10/05 11:08:07;;;;;;;8.40;3.10;;;;;;;17.12;61.19;99130.19;5051052;28;20043;-74
2023/10/05 11:10:33;;;;;;;6.72;3.10;;;;;;;17.06;61.20;99125.81;5068974;28;20024;-74
2023/10/05 11:13:14;;;;;;;7.88;3.33;;;;;;;16.98;62.04;99139.91;5072884;28;20035;-74
2023/10/05 11:16:09;;;;;;;9.65;3.38;;;;;;;16.97;61.60;99135.53;5051713;28;20098;-74
2023/10/05 11:18:39;;;;;;;8.75;3.50;;;;;;;16.95;61.52;99124.09;5057684;28;20515;-74
2023/10/05 11:21:23;;;;;;;6.95;3.05;;;;;;;16.79;61.35;99119.63;5038970;28;20395;-74
2023/10/05 11:23:55;;;;;;;7.05;3.08;;;;;;;16.95;61.51;99140.41;5054735;28;20415;-74
2023/10/05 11:26:57;;;;;;;7.68;2.92;;;;;;;16.76;61.91;99103.81;5053616;28;20039;-76
2023/10/05 11:29:15;;;;;;;9.95;3.70;;;;;;;16.85;62.20;99143.88;5048029;28;20029;-74
2023/10/05 11:31:44;;;;;;;7.75;3.17;;;;;;;16.86;62.61;99142.81;5047174;28;20484;-74
2023/10/05 11:34:11;;;;;;;11.10;3.58;;;;;;;16.74;62.38;99149.50;5037912;28;20524;-75
2023/10/05 11:36:39;;;;;;;6.65;3.28;;;;;;;16.88;62.43;99150.72;5054290;28;20038;-74
2023/10/05 11:39:08;;;;;;;6.90;3.05;;;;;;;16.81;61.64;99133.78;5054933;28;20039;-74
2023/10/05 11:41:34;;;;;;;9.63;3.45;;;;;;;17.05;61.31;99132.31;5037572;28;20036;-73
2023/10/05 11:44:00;;;;;;;7.45;3.28;;;;;;;17.00;61.59;99121.41;5037293;28;20036;-74
2023/10/05 11:46:42;;;;;;;11.48;3.80;;;;;;;17.19;60.48;99137.03;5053607;28;20115;-74
2023/10/05 11:49:13;;;;;;;5.68;2.78;;;;;;;17.28;60.19;99145.50;5065851;28;20147;-73
2023/10/05 11:51:42;;;;;;;9.52;3.00;;;;;;;17.32;59.25;99141.19;5071818;28;20029;-74
2023/10/05 11:54:08;;;;;;;6.88;2.85;;;;;;;17.20;59.56;99143.28;5051794;28;20048;-74
2023/10/05 11:56:33;;;;;;;7.47;2.60;;;;;;;17.21;59.11;99125.88;5050161;28;20461;-74
2023/10/05 11:59:05;;;;;;;6.88;3.03;;;;;;;17.26;59.13;99132.19;5063144;28;20123;-74
2023/10/05 12:01:32;;;;;;;7.22;2.88;;;;;;;17.22;59.14;99124.81;5033620;28;20035;-74
2023/10/05 12:03:58;;;;;;;5.20;2.35;;;;;;;17.33;58.89;99131.09;5066575;28;20024;-74
2023/10/05 12:06:23;;;;;;;8.35;2.90;;;;;;;17.05;58.13;99118.72;5033162;28;20041;-74
2023/10/05 12:08:53;;;;;;;6.20;2.53;;;;;;;17.17;58.41;99133.78;5048616;28;20035;-74
2023/10/05 12:11:23;;;;;;;5.43;2.50;;;;;;;17.07;58.55;99120.09;5046425;28;20115;-74
2023/10/05 12:13:50;;;;;;;9.13;2.63;;;;;;;17.33;58.08;99131.94;5049881;28;20130;-73
2023/10/05 12:16:16;;;;;;;10.75;2.78;;;;;;;17.20;58.71;99105.16;5036623;28;20033;-74
2023/10/05 12:18:42;;;;;;;7.60;2.75;;;;;;;17.38;57.83;99126.50;5053620;28;20033;-74
2023/10/05 12:21:09;;;;;;;4.32;2.60;;;;;;;17.51;57.59;99123.31;5071518;28;20107;-73